Time;durP1;ratioP1;P1;durP2;ratioP2;P2;SDS_P1;SDS_P2;PMS_P1;PMS_P2;Temp;Humidity;BMP_temperature;BMP_pressure;BME280_temperature;BME280_humidity;BME280_pressure;Samples;Min_cycle;Max_cycle;Signal;HPM_P1;HPM_P2
2021/12/21 00:01:21;;;;;;;9.13;2.53;;;-2.60;99.90;-3.10;97316.00;;;;5071891;28;20461;-86
2021/12/21 00:04:09;;;;;;;5.73;3.23;;;-2.50;99.90;-3.00;97320.00;;;;5082304;28;20422;-87
2021/12/21 00:07:01;;;;;;;6.13;3.57;;;-2.50;99.90;-3.10;97316.00;;;;5069776;28;20430;-86
2021/12/21 00:09:50;;;;;;;7.47;3.47;;;-0.80;99.90;-3.10;97319.00;;;;5073113;28;20456;-88
2021/12/21 00:12:49;;;;;;;5.80;3.37;;;-2.50;99.90;-3.10;97323.00;;;;5079531;28;20449;-86
2021/12/21 00:15:53;;;;;;;11.27;3.93;;;-1.20;99.90;-3.10;97323.00;;;;5076444;28;20446;-86
2021/12/21 00:18:49;;;;;;;10.43;5.03;;;-2.60;99.90;-3.30;97321.00;;;;5078405;28;20415;-87
2021/12/21 00:21:41;;;;;;;6.37;4.10;;;-2.60;99.90;-3.50;97319.00;;;;5078998;28;20461;-87
2021/12/21 00:24:41;;;;;;;9.87;4.87;;;-2.40;99.90;-3.60;97324.00;;;;5074548;28;20430;-86
2021/12/21 00:27:30;;;;;;;9.50;5.03;;;-2.70;99.90;-3.70;97314.00;;;;5083029;28;20430;-86
2021/12/21 00:30:19;;;;;;;1.57;0.93;;;-2.90;99.90;-4.30;97313.00;;;;5078323;28;20481;-85
2021/12/21 00:33:08;;;;;;;6.37;3.00;;;-3.00;99.90;-4.10;97310.00;;;;5082637;28;20421;-86
2021/12/21 00:35:57;;;;;;;12.87;4.47;;;-3.10;99.90;-3.70;97312.00;;;;5064185;28;20415;-86
2021/12/21 00:38:47;;;;;;;4.67;3.10;;;-3.10;99.90;-3.90;97305.00;;;;5076237;28;20812;-86
2021/12/21 00:41:37;;;;;;;6.93;4.57;;;-3.10;99.90;-3.90;97316.00;;;;5077447;28;20986;-86
2021/12/21 00:44:26;;;;;;;4.87;4.27;;;-3.20;99.90;-3.90;97322.00;;;;5078076;28;20439;-84
2021/12/21 00:47:16;;;;;;;5.13;3.93;;;-2.10;99.90;-3.90;97325.00;;;;5087138;28;20414;-88
2021/12/21 00:50:08;;;;;;;7.20;4.47;;;-3.20;99.90;-3.90;97335.00;;;;5085383;28;20457;-85
2021/12/21 00:52:59;;;;;;;5.57;3.60;;;-3.30;99.90;-3.80;97323.00;;;;5056445;28;20427;-85
2021/12/21 00:55:48;;;;;;;5.13;3.83;;;-3.30;99.90;-3.80;97327.00;;;;5055185;28;20450;-86
2021/12/21 00:58:39;;;;;;;9.53;2.90;;;-3.30;99.90;-3.90;97332.00;;;;5062122;28;20411;-86
2021/12/21 01:01:28;;;;;;;6.63;3.80;;;-3.30;99.90;-3.90;97332.00;;;;5077858;28;20463;-87
2021/12/21 01:04:22;;;;;;;3.27;2.80;;;-2.70;99.90;-3.90;97345.00;;;;5077814;28;20422;-85
2021/12/21 01:07:20;;;;;;;4.77;3.03;;;-3.30;99.90;-4.00;97337.00;;;;5070110;28;20438;-87
2021/12/21 01:13:31;;;;;;;4.30;2.93;;;-3.40;99.90;-4.20;97344.00;;;;5058419;28;20427;-86
2021/12/21 01:16:29;;;;;;;3.73;2.70;;;-2.00;99.90;-4.30;97344.00;;;;5056830;28;20431;-87
2021/12/21 01:19:23;;;;;;;5.00;3.13;;;-3.20;99.90;-4.20;97351.00;;;;5068652;28;20810;-86
2021/12/21 01:22:18;;;;;;;3.57;2.40;;;-3.60;99.90;-4.10;97342.00;;;;5055535;28;20968;-87
2021/12/21 01:25:26;;;;;;;3.30;2.60;;;-3.60;99.90;-4.20;97347.00;;;;5055887;28;20427;-85
2021/12/21 01:28:21;;;;;;;3.27;2.97;;;-3.60;99.90;-4.20;97352.00;;;;5057315;28;20435;-86
2021/12/21 01:31:22;;;;;;;3.33;3.03;;;-3.60;99.90;-4.50;97345.00;;;;5063283;28;20466;-84
2021/12/21 01:34:24;;;;;;;7.40;4.43;;;-2.90;99.90;-4.30;97349.00;;;;5087674;28;20445;-85
2021/12/21 01:37:21;;;;;;;6.63;3.37;;;-3.60;99.90;-4.20;97347.00;;;;5081027;28;20437;-86
2021/12/21 01:40:22;;;;;;;3.83;2.90;;;-3.70;99.90;-4.10;97350.00;;;;5074513;28;20453;-86
2021/12/21 01:43:19;;;;;;;6.70;4.23;;;-3.60;99.90;-4.20;97347.00;;;;5075044;28;20426;-86
2021/12/21 01:49:38;;;;;;;4.90;3.90;;;-3.60;99.90;-4.90;97337.00;;;;5076315;28;20426;-85
2021/12/21 01:52:29;;;;;;;5.90;4.07;;;-3.80;99.90;-4.60;97339.00;;;;5068060;28;20454;-85
2021/12/21 01:55:18;;;;;;;9.43;5.37;;;-3.80;99.90;-4.40;97342.00;;;;5075119;28;20431;-87
2021/12/21 01:58:07;;;;;;;13.37;4.77;;;-3.70;99.90;-4.60;97350.00;;;;5073466;28;20434;-84
2021/12/21 02:00:56;;;;;;;3.77;2.73;;;-3.80;99.90;-5.30;97336.00;;;;5074441;28;20447;-86
2021/12/21 02:03:47;;;;;;;2.97;2.33;;;-3.90;99.90;-5.00;97339.00;;;;5078028;28;20427;-87
2021/12/21 02:06:37;;;;;;;3.30;2.97;;;-4.00;99.90;-4.80;97335.00;;;;5068716;28;20748;-88
2021/12/21 02:09:36;;;;;;;4.60;3.33;;;-4.10;99.90;-4.60;97325.00;;;;5057946;28;20443;-85
2021/12/21 02:12:24;;;;;;;3.50;2.77;;;-3.60;99.90;-5.10;97326.00;;;;5056909;28;20483;-85
2021/12/21 02:15:14;;;;;;;5.97;2.90;;;-3.90;99.90;-5.00;97331.00;;;;5067765;28;20423;-86
2021/12/21 02:21:29;;;;;;;5.17;2.27;;;-3.90;99.90;-4.60;97330.00;;;;5073702;28;20457;-86
2021/12/21 02:24:23;;;;;;;3.63;2.70;;;-3.50;99.90;-4.60;97337.00;;;;5076725;28;20804;-88
2021/12/21 02:27:26;;;;;;;3.10;2.67;;;-4.00;99.90;-4.70;97337.00;;;;5078048;28;20437;-87
2021/12/21 02:30:18;;;;;;;2.63;2.43;;;-4.10;99.90;-4.80;97338.00;;;;5077443;28;20939;-87
2021/12/21 02:33:07;;;;;;;3.73;3.23;;;-4.10;99.90;-4.60;97343.00;;;;5078639;28;20477;-85
2021/12/21 02:35:58;;;;;;;3.20;2.50;;;-4.00;99.90;-4.60;97338.00;;;;5072090;28;20799;-87
2021/12/21 02:38:48;;;;;;;3.43;3.00;;;-4.00;99.90;-4.50;97338.00;;;;5078101;28;20970;-84
2021/12/21 02:41:38;;;;;;;7.60;3.20;;;-3.90;99.90;-4.60;97329.00;;;;5079306;28;20458;-88
2021/12/21 02:44:27;;;;;;;3.43;3.13;;;-3.70;99.90;-4.70;97338.00;;;;5078572;28;20442;-84
2021/12/21 02:47:16;;;;;;;4.17;2.63;;;-3.70;99.90;-5.00;97336.00;;;;5090932;28;20795;-84
2021/12/21 02:50:07;;;;;;;2.60;2.07;;;-4.00;99.90;-5.20;97336.00;;;;5071768;28;20442;-86
2021/12/21 02:52:56;;;;;;;2.43;1.67;;;-4.10;99.90;-5.20;97331.00;;;;5057525;28;20470;-88
2021/12/21 02:55:46;;;;;;;2.73;1.97;;;-3.50;99.90;-5.10;97340.00;;;;5055892;28;20441;-85
2021/12/21 02:58:35;;;;;;;7.07;3.17;;;-4.20;99.90;-5.00;97339.00;;;;5058474;28;20435;-85
2021/12/21 03:01:24;;;;;;;2.77;2.47;;;-3.90;99.90;-4.80;97344.00;;;;5060634;28;20256;-86
2021/12/21 03:04:13;;;;;;;4.27;2.33;;;-4.20;99.90;-5.00;97340.00;;;;5070529;28;20419;-87
2021/12/21 03:10:10;;;;;;;2.07;1.97;;;-4.30;99.90;-5.20;97343.00;;;;5057888;28;20473;-85
2021/12/21 03:16:07;;;;;;;3.47;2.67;;;-4.10;99.90;-5.00;97338.00;;;;5076570;28;20430;-87
2021/12/21 03:18:57;;;;;;;4.37;2.50;;;-4.00;99.90;-5.10;97348.00;;;;5077431;28;20430;-85
2021/12/21 03:21:46;;;;;;;4.83;2.43;;;-4.40;99.90;-5.10;97340.00;;;;5074871;28;20446;-84
2021/12/21 03:24:36;;;;;;;3.90;2.33;;;-4.40;99.90;-5.40;97338.00;;;;5067955;28;20426;-85
2021/12/21 03:27:25;;;;;;;4.10;2.53;;;-4.40;99.90;-5.80;97324.00;;;;5075286;28;20434;-87
2021/12/21 03:30:17;;;;;;;4.37;3.13;;;-4.20;99.90;-5.50;97335.00;;;;5060509;28;20458;-84
2021/12/21 03:33:06;;;;;;;1.93;1.80;;;-4.00;99.90;-5.50;97336.00;;;;5055015;28;20470;-87
2021/12/21 03:35:55;;;;;;;1.83;1.73;;;-4.60;99.90;-6.00;97338.00;;;;5050549;28;20940;-85
2021/12/21 03:38:49;;;;;;;2.53;1.97;;;-4.20;99.90;-6.10;97338.00;;;;5055445;28;20428;-87
2021/12/21 03:41:44;;;;;;;5.37;2.77;;;-4.60;99.90;-5.60;97347.00;;;;5066163;28;20446;-86
2021/12/21 03:44:32;;;;;;;4.47;2.80;;;-4.40;99.90;-5.40;97356.00;;;;5073466;28;20955;-87
2021/12/21 03:47:23;;;;;;;2.90;2.00;;;-4.70;99.90;-5.10;97358.00;;;;5075212;28;20445;-86
2021/12/21 03:50:18;;;;;;;3.53;2.30;;;-4.20;99.90;-5.20;97362.00;;;;5083750;28;20989;-85
2021/12/21 03:53:07;;;;;;;2.93;2.63;;;-3.90;99.90;-5.20;97367.00;;;;5074471;28;20519;-86
2021/12/21 03:56:10;;;;;;;7.13;4.07;;;-3.70;99.90;-5.50;97353.00;;;;5061910;28;20427;-86
2021/12/21 03:59:00;;;;;;;6.47;4.17;;;-4.20;99.90;-5.50;97355.00;;;;5074446;28;20422;-86
2021/12/21 04:01:50;;;;;;;5.40;3.37;;;-4.70;99.90;-5.60;97346.00;;;;5073867;28;20855;-85
2021/12/21 04:04:42;;;;;;;4.57;3.13;;;-4.10;99.90;-6.30;97347.00;;;;5085091;28;20774;-86
2021/12/21 04:07:31;;;;;;;8.90;3.53;;;-4.80;99.90;-6.20;97337.00;;;;5079835;28;20807;-85
2021/12/21 04:10:20;;;;;;;9.60;3.80;;;-5.00;99.90;-6.00;97357.00;;;;5077744;28;20461;-87
2021/12/21 04:13:10;;;;;;;5.07;2.30;;;-4.80;99.90;-5.60;97354.00;;;;5077364;28;20234;-88
2021/12/21 04:16:02;;;;;;;2.30;1.73;;;-4.00;99.90;-5.60;97354.00;;;;5075528;28;20432;-87
2021/12/21 04:18:50;;;;;;;3.00;2.67;;;-4.90;99.90;-5.30;97367.00;;;;5081299;28;20438;-84
2021/12/21 04:21:41;;;;;;;2.55;2.17;;;-4.20;99.90;-5.20;97360.00;;;;5091014;28;20454;-85
2021/12/21 04:24:29;;;;;;;4.00;2.47;;;-4.70;99.90;-5.40;97355.00;;;;5079053;28;20208;-86
2021/12/21 04:27:19;;;;;;;4.87;4.37;;;-3.80;99.90;-5.80;97358.00;;;;5073009;28;20449;-87
2021/12/21 04:30:50;;;;;;;2.35;2.20;;;-3.60;99.90;-5.90;97353.00;;;;5067005;28;20446;-86
2021/12/21 04:33:54;;;;;;;9.33;2.90;;;-4.90;99.90;-6.00;97367.00;;;;5063194;28;20219;-86
2021/12/21 04:36:55;;;;;;;3.43;2.37;;;-4.10;99.90;-6.20;97351.00;;;;5074366;28;20973;-87
2021/12/21 04:39:50;;;;;;;2.00;1.70;;;-4.60;99.90;-6.20;97359.00;;;;5067922;28;20812;-88
2021/12/21 04:42:38;;;;;;;1.60;1.50;;;-4.50;99.90;-6.40;97359.00;;;;5066277;28;20434;-85
2021/12/21 04:45:27;;;;;;;8.17;2.17;;;-5.10;99.90;-6.00;97364.00;;;;5076180;28;20439;-87
2021/12/21 04:48:17;;;;;;;2.13;1.93;;;-4.60;99.90;-5.90;97370.00;;;;5088106;28;20946;-86
2021/12/21 04:51:06;;;;;;;2.00;1.57;;;-4.80;99.90;-6.00;97366.00;;;;5074734;28;20959;-85
2021/12/21 04:53:57;;;;;;;1.57;1.47;;;-4.40;99.90;-6.30;97357.00;;;;5075385;28;20457;-88
2021/12/21 04:56:46;;;;;;;3.90;1.97;;;-5.10;99.90;-6.20;97356.00;;;;5074552;28;20427;-88
2021/12/21 04:59:35;;;;;;;4.03;1.70;;;-5.20;99.90;-6.40;97354.00;;;;5073858;28;20432;-86
2021/12/21 05:02:24;;;;;;;8.43;3.40;;;-4.60;99.90;-6.20;97373.00;;;;5078869;28;20697;-86
2021/12/21 05:05:12;;;;;;;4.38;3.05;;;-4.60;99.90;-6.10;97362.00;;;;5080400;28;20711;-87
2021/12/21 05:08:09;;;;;;;6.03;2.93;;;-5.00;99.90;-5.90;97363.00;;;;5076180;28;20661;-86
2021/12/21 05:11:03;;;;;;;3.22;2.90;;;-4.50;99.90;-6.00;97383.00;;;;5082323;28;20453;-84
2021/12/21 05:13:51;;;;;;;2.58;2.38;;;-4.80;99.90;-5.80;97377.00;;;;5078672;28;20235;-87
2021/12/21 05:16:40;;;;;;;3.08;2.28;;;-5.10;99.90;-5.80;97367.00;;;;5075187;28;20199;-86
2021/12/21 05:19:29;;;;;;;3.23;2.77;;;-5.10;99.90;-5.80;97374.00;;;;5073960;28;20657;-86
2021/12/21 05:22:18;;;;;;;7.53;3.27;;;-4.90;99.90;-5.80;97381.00;;;;5074702;28;20426;-88
2021/12/21 05:25:08;;;;;;;1.40;1.30;;;-3.10;99.90;-6.10;97377.00;;;;5072956;28;20426;-86
2021/12/21 05:27:59;;;;;;;15.17;2.83;;;-5.10;99.90;-6.10;97377.00;;;;5066924;28;20435;-87
2021/12/21 05:30:48;;;;;;;2.63;2.43;;;-5.10;99.90;-5.90;97388.00;;;;5076530;28;20438;-87
2021/12/21 05:33:37;;;;;;;1.77;1.67;;;-4.60;99.90;-5.80;97394.00;;;;5078011;28;20466;-86
2021/12/21 05:36:25;;;;;;;1.70;1.60;;;-5.00;99.90;-5.60;97398.00;;;;5077438;28;20942;-86
2021/12/21 05:39:19;;;;;;;4.47;2.70;;;-4.60;99.90;-6.00;97388.00;;;;5077544;28;20930;-85
2021/12/21 05:42:09;;;;;;;3.10;2.27;;;-5.00;99.90;-5.90;97389.00;;;;5069016;28;20462;-85
2021/12/21 05:44:59;;;;;;;1.93;1.57;;;-5.00;99.90;-5.70;97397.00;;;;5073827;28;20446;-87
2021/12/21 05:47:48;;;;;;;2.70;2.00;;;-5.00;99.90;-5.60;97404.00;;;;5063721;28;20421;-86
2021/12/21 05:50:37;;;;;;;1.92;1.55;;;-4.90;99.90;-5.50;97398.00;;;;5075949;28;20446;-87
2021/12/21 05:53:26;;;;;;;1.73;1.63;;;-4.90;99.90;-5.40;97409.00;;;;5078832;28;20224;-84
2021/12/21 05:56:15;;;;;;;2.83;1.77;;;-4.90;99.90;-5.40;97409.00;;;;5078139;28;20419;-87
2021/12/21 05:59:04;;;;;;;2.20;2.00;;;-4.50;99.90;-5.40;97403.00;;;;5060367;28;20430;-86
2021/12/21 06:01:55;;;;;;;2.50;2.10;;;-4.80;99.90;-5.40;97406.00;;;;5065290;28;20820;-87
2021/12/21 06:04:44;;;;;;;8.07;2.70;;;-4.70;99.90;-5.50;97403.00;;;;5073530;28;20423;-87
2021/12/21 06:07:33;;;;;;;4.53;2.57;;;-4.50;99.90;-5.50;97407.00;;;;5080179;28;20419;-87
2021/12/21 06:10:27;;;;;;;6.50;2.90;;;-4.00;99.90;-5.80;97397.00;;;;5076989;28;20462;-86
2021/12/21 06:23:04;;;;;;;6.63;2.83;;;-5.20;99.90;-6.40;97414.00;;;;5067478;28;20435;-87
2021/12/21 06:25:56;;;;;;;3.78;2.22;;;-5.30;99.90;-6.20;97420.00;;;;5072835;28;20954;-84
2021/12/21 06:28:47;;;;;;;4.80;2.87;;;-5.30;99.90;-6.00;97423.00;;;;5072575;28;20211;-85
2021/12/21 06:31:37;;;;;;;4.90;2.60;;;-4.70;99.90;-5.90;97425.00;;;;5053794;28;20796;-86
2021/12/21 06:34:26;;;;;;;5.60;3.27;;;-5.30;99.90;-6.00;97427.00;;;;5068268;28;20247;-87
2021/12/21 06:37:17;;;;;;;3.83;2.95;;;-5.30;99.90;-6.10;97401.00;;;;5073439;28;20455;-87
2021/12/21 06:40:08;;;;;;;5.57;3.33;;;-5.20;99.90;-6.20;97412.00;;;;5072670;28;20617;-85
2021/12/21 06:43:00;;;;;;;3.83;2.47;;;-5.30;99.90;-6.20;97423.00;;;;5072957;28;20441;-85
2021/12/21 06:45:55;;;;;;;3.20;2.90;;;-5.30;99.90;-5.90;97421.00;;;;5071136;28;20449;-85
2021/12/21 06:51:51;;;;;;;4.53;3.20;;;-5.20;99.90;-5.70;97415.00;;;;5069169;28;20448;-85
2021/12/21 06:54:41;;;;;;;5.03;3.33;;;-5.10;99.90;-5.60;97429.00;;;;5066002;28;20475;-86
2021/12/21 06:57:30;;;;;;;10.47;2.50;;;-3.90;99.90;-5.90;97418.00;;;;5058015;28;20427;-87
2021/12/21 07:00:20;;;;;;;5.27;2.57;;;-5.00;99.90;-6.20;97417.00;;;;5062561;28;20449;-87
2021/12/21 07:03:09;;;;;;;4.00;2.33;;;-5.10;99.90;-6.10;97417.00;;;;5073273;28;20439;-84
2021/12/21 07:06:02;;;;;;;4.43;2.50;;;-5.20;99.90;-6.20;97427.00;;;;5084038;28;20411;-84
2021/12/21 07:08:59;;;;;;;3.20;2.33;;;-5.20;99.90;-6.20;97436.00;;;;5092028;28;20434;-84
2021/12/21 07:11:57;;;;;;;2.87;2.37;;;-4.10;99.90;-5.90;97432.00;;;;5071608;28;20228;-86
2021/12/21 07:18:12;;;;;;;7.60;3.15;;;-5.20;99.90;-5.50;97441.00;;;;5072962;28;20445;-85
2021/12/21 07:21:02;;;;;;;3.07;2.17;;;-5.10;99.90;-5.50;97445.00;;;;5067849;28;20216;-84
2021/12/21 07:23:51;;;;;;;4.57;2.20;;;-4.30;99.90;-5.60;97448.00;;;;5060755;28;20434;-84
2021/12/21 07:26:40;;;;;;;2.50;2.30;;;-4.50;99.90;-5.80;97434.00;;;;5075075;28;20437;-86
2021/12/21 07:29:31;;;;;;;8.97;4.80;;;-4.80;99.90;-5.60;97443.00;;;;5069627;28;20428;-84
2021/12/21 07:32:19;;;;;;;9.47;4.07;;;-4.40;99.90;-5.50;97448.00;;;;5067034;28;20447;-87
2021/12/21 07:35:09;;;;;;;7.83;3.63;;;-2.80;99.90;-5.80;97437.00;;;;5058201;28;20550;-86
2021/12/21 07:38:00;;;;;;;9.33;4.30;;;-4.90;99.90;-5.60;97435.00;;;;5073404;28;20430;-84
2021/12/21 07:40:48;;;;;;;5.63;3.30;;;-4.90;99.90;-5.30;97435.00;;;;5079643;28;20450;-87
2021/12/21 07:43:37;;;;;;;8.07;4.40;;;-4.80;99.90;-5.20;97441.00;;;;5078329;28;20422;-86
2021/12/21 07:46:27;;;;;;;4.33;2.57;;;-4.20;99.90;-5.20;97437.00;;;;5080891;28;20436;-87
2021/12/21 07:49:17;;;;;;;4.37;2.70;;;-4.70;99.90;-5.20;97449.00;;;;5069398;28;20462;-87
2021/12/21 07:52:08;;;;;;;3.60;1.93;;;-4.60;99.90;-4.90;97450.00;;;;5061153;28;20463;-86
2021/12/21 07:54:57;;;;;;;3.90;2.93;;;-4.50;99.90;-4.60;97452.00;;;;5069149;28;20767;-85
2021/12/21 07:57:46;;;;;;;6.60;3.43;;;-4.40;99.90;-4.60;97445.00;;;;5062882;28;20422;-86
2021/12/21 08:00:36;;;;;;;10.30;4.27;;;-3.70;99.90;-4.90;97449.00;;;;5073439;28;20437;-86
2021/12/21 08:03:26;;;;;;;11.00;4.50;;;-4.10;99.90;-4.80;97440.00;;;;5067855;28;20427;-86
2021/12/21 08:06:16;;;;;;;6.53;4.03;;;-4.30;99.90;-4.80;97453.00;;;;5061370;28;20516;-88
2021/12/21 08:09:06;;;;;;;4.33;2.03;;;-4.20;99.90;-4.70;97453.00;;;;5066626;28;20418;-86
2021/12/21 08:12:15;;;;;;;5.63;2.80;;;-3.60;99.90;-4.90;97450.00;;;;5067941;28;20449;-86
2021/12/21 08:15:05;;;;;;;2.40;2.30;;;-4.00;99.90;-4.30;97455.00;;;;5066608;28;21109;-86
2021/12/21 08:17:54;;;;;;;4.27;3.63;;;-4.00;99.90;-4.30;97457.00;;;;5059853;28;20431;-86
2021/12/21 08:20:44;;;;;;;3.73;3.20;;;-3.40;99.90;-4.20;97457.00;;;;5067958;28;20443;-86
2021/12/21 08:23:33;;;;;;;5.90;2.57;;;-3.80;99.90;-4.50;97451.00;;;;5067196;28;20442;-85
2021/12/21 08:26:22;;;;;;;4.67;3.13;;;-3.70;99.90;-4.80;97449.00;;;;5068562;28;20960;-85
2021/12/21 08:29:11;;;;;;;4.53;4.07;;;-3.80;99.90;-4.50;97453.00;;;;5074789;28;20427;-85
2021/12/21 08:32:00;;;;;;;2.83;2.50;;;-3.80;99.90;-4.40;97451.00;;;;5071709;28;20456;-86
2021/12/21 08:34:49;;;;;;;4.23;2.73;;;-3.80;99.90;-4.20;97454.00;;;;5073616;28;20506;-86
2021/12/21 08:37:39;;;;;;;4.40;2.77;;;-3.60;99.90;-3.90;97455.00;;;;5062991;28;20431;-86
2021/12/21 08:40:36;;;;;;;4.27;2.90;;;-3.60;99.90;-4.00;97458.00;;;;5059373;28;20443;-85
2021/12/21 08:43:25;;;;;;;6.77;2.90;;;-3.50;99.90;-4.00;97461.00;;;;5067609;28;20799;-84
2021/12/21 08:46:14;;;;;;;5.97;2.93;;;-3.40;99.90;-3.80;97458.00;;;;5067454;28;20896;-86
2021/12/21 08:49:03;;;;;;;6.27;2.27;;;-3.00;99.90;-3.70;97472.00;;;;5069493;28;20489;-86
2021/12/21 08:51:52;;;;;;;5.83;2.93;;;-3.30;99.90;-3.60;97473.00;;;;5064994;28;20446;-85
2021/12/21 08:54:42;;;;;;;3.53;2.57;;;-3.20;99.90;-3.40;97476.00;;;;5077077;28;20466;-85
2021/12/21 08:57:31;;;;;;;2.47;2.27;;;-3.10;99.90;-3.40;97480.00;;;;5079333;28;20434;-85
2021/12/21 09:00:20;;;;;;;2.93;2.13;;;-3.00;99.90;-3.20;97475.00;;;;5051725;28;20443;-86
2021/12/21 09:03:09;;;;;;;4.03;2.63;;;-2.90;99.90;-3.20;97472.00;;;;5059491;28;20438;-86
2021/12/21 09:05:58;;;;;;;7.13;3.10;;;-2.80;99.90;-3.20;97482.00;;;;5065760;28;20514;-85
2021/12/21 09:08:47;;;;;;;3.13;2.80;;;-2.80;99.90;-2.90;97481.00;;;;5065689;28;20430;-85
2021/12/21 09:11:38;;;;;;;4.77;3.37;;;-2.70;99.90;-2.70;97475.00;;;;5062131;28;20438;-85
2021/12/21 09:14:31;;;;;;;6.83;5.23;;;-2.50;99.90;-2.60;97483.00;;;;5064604;28;20470;-85
2021/12/21 09:17:20;;;;;;;15.33;9.10;;;-2.40;99.90;-2.70;97480.00;;;;5057292;28;20428;-85
2021/12/21 09:20:12;;;;;;;15.67;9.57;;;-1.90;99.90;-2.60;97484.00;;;;5071517;28;20448;-85
2021/12/21 09:23:05;;;;;;;8.33;4.83;;;-2.20;99.90;-2.50;97477.00;;;;5069394;28;20419;-87
2021/12/21 09:25:54;;;;;;;4.47;3.33;;;-2.20;99.90;-2.20;97479.00;;;;5066013;28;20423;-86
2021/12/21 09:28:44;;;;;;;2.73;2.53;;;-2.10;99.90;-2.40;97473.00;;;;5067520;28;20460;-85
2021/12/21 09:31:33;;;;;;;3.80;3.10;;;-2.00;99.90;-2.50;97476.00;;;;5066929;28;20461;-86
2021/12/21 09:34:22;;;;;;;10.97;2.63;;;-2.00;99.90;-2.60;97475.00;;;;5073084;28;20425;-85
2021/12/21 09:37:16;;;;;;;13.00;2.40;;;-2.00;99.90;-2.40;97472.00;;;;5082040;28;20427;-84
2021/12/21 09:40:08;;;;;;;3.03;2.40;;;-2.00;99.90;-2.50;97470.00;;;;5071687;28;20932;-86
2021/12/21 09:42:58;;;;;;;2.30;2.10;;;-2.00;99.90;-2.30;97477.00;;;;5070157;28;20806;-87
2021/12/21 09:45:49;;;;;;;2.97;2.50;;;-2.00;99.90;-2.00;97464.00;;;;5064687;28;20442;-86
2021/12/21 09:48:38;;;;;;;2.77;2.57;;;-1.90;99.90;-2.10;97476.00;;;;5067561;28;20435;-87
2021/12/21 09:51:27;;;;;;;4.83;2.00;;;-1.10;99.90;-1.60;97471.00;;;;5081414;28;20477;-87
2021/12/21 09:54:19;;;;;;;8.37;2.93;;;-1.60;99.90;-1.70;97472.00;;;;5098711;28;20434;-85
2021/12/21 09:57:09;;;;;;;9.00;3.20;;;-1.50;99.90;-1.30;97472.00;;;;5063078;28;20438;-86
2021/12/21 09:59:58;;;;;;;2.43;2.23;;;-1.30;99.90;-1.30;97471.00;;;;5071532;28;20442;-87
2021/12/21 10:02:48;;;;;;;5.47;1.63;;;-1.20;99.90;-1.00;97470.00;;;;5066571;28;20422;-87
2021/12/21 10:05:40;;;;;;;7.03;2.63;;;-1.00;99.90;-0.80;97460.00;;;;5066996;28;20415;-87
2021/12/21 10:08:32;;;;;;;4.37;2.13;;;-0.50;99.90;-0.80;97475.00;;;;5061500;28;20419;-88
2021/12/21 10:11:24;;;;;;;4.63;2.30;;;-0.70;99.90;-0.70;97466.00;;;;5069009;28;20454;-87
2021/12/21 10:14:12;;;;;;;2.97;2.77;;;-0.60;99.90;-0.50;97464.00;;;;5070614;28;20464;-87
2021/12/21 10:17:05;;;;;;;4.07;3.00;;;-0.50;99.90;-0.40;97453.00;;;;5069091;28;20469;-87
2021/12/21 10:19:55;;;;;;;2.40;2.17;;;-0.40;99.90;-0.60;97440.00;;;;5065649;28;20492;-87
2021/12/21 10:22:51;;;;;;;3.70;3.37;;;0.40;99.90;-0.90;97427.00;;;;5067581;28;20427;-88
2021/12/21 10:25:46;;;;;;;3.63;3.33;;;-0.20;99.90;-0.40;97433.00;;;;5066632;28;20430;-87
2021/12/21 10:28:39;;;;;;;5.83;3.33;;;-0.20;99.90;0.00;97438.00;;;;5062330;28;20943;-87
2021/12/21 10:31:30;;;;;;;4.87;3.10;;;-0.10;99.90;0.10;97443.00;;;;5063695;28;20448;-87
2021/12/21 10:34:21;;;;;;;3.03;2.83;;;0.20;99.90;0.40;97433.00;;;;5061801;28;20812;-88
2021/12/21 10:37:23;;;;;;;6.50;2.63;;;1.50;99.90;0.80;97438.00;;;;5067479;28;20435;-87
2021/12/21 10:40:22;;;;;;;6.43;3.67;;;0.50;99.90;1.00;97430.00;;;;5060402;28;20438;-87
2021/12/21 10:43:11;;;;;;;5.83;4.20;;;0.90;99.90;1.70;97404.00;;;;5076252;28;20445;-87
2021/12/21 10:46:00;;;;;;;4.27;2.80;;;1.50;99.90;2.50;97407.00;;;;5070462;28;20901;-90
2021/12/21 10:48:49;;;;;;;8.60;3.57;;;2.40;99.90;3.80;97413.00;;;;5054899;28;20963;-86
2021/12/21 10:51:52;;;;;;;3.90;3.33;;;3.10;99.90;5.00;97407.00;;;;5054517;28;20466;-86
2021/12/21 10:54:44;;;;;;;11.30;4.33;;;4.20;99.90;5.40;97412.00;;;;5069050;28;20414;-88
2021/12/21 10:57:33;;;;;;;5.50;3.77;;;5.40;99.90;5.20;97420.00;;;;5067916;28;20686;-87
2021/12/21 11:00:23;;;;;;;7.10;3.40;;;6.10;96.50;6.00;97402.00;;;;5059746;28;20637;-88
2021/12/21 11:03:16;;;;;;;7.87;3.53;;;6.50;94.00;6.80;97416.00;;;;5072219;28;20204;-87
2021/12/21 11:06:12;;;;;;;5.10;3.77;;;6.90;92.40;6.10;97385.00;;;;5056761;28;20207;-86
2021/12/21 11:09:04;;;;;;;6.37;3.77;;;7.10;84.80;4.20;97382.00;;;;5049012;28;20212;-86
2021/12/21 11:11:58;;;;;;;6.20;3.53;;;7.10;78.50;4.90;97378.00;;;;5066660;28;20223;-86
2021/12/21 11:14:47;;;;;;;4.07;2.97;;;7.00;78.20;5.00;97410.00;;;;5066564;28;20208;-88
2021/12/21 11:17:37;;;;;;;15.67;4.33;;;6.90;75.60;4.60;97406.00;;;;5069392;28;20730;-87
2021/12/21 11:20:27;;;;;;;9.43;4.00;;;6.20;75.00;3.80;97392.00;;;;5077146;28;20281;-86
2021/12/21 11:23:22;;;;;;;7.50;3.73;;;5.60;77.20;2.90;97375.00;;;;5077834;28;20205;-86
2021/12/21 11:26:11;;;;;;;63.37;11.47;;;4.90;78.70;3.60;97380.00;;;;5071154;28;20689;-86
2021/12/21 11:29:07;;;;;;;9.00;4.27;;;4.20;81.00;3.70;97382.00;;;;5076469;28;20550;-86
2021/12/21 11:31:58;;;;;;;6.00;4.00;;;4.30;83.00;3.50;97377.00;;;;5088780;28;20218;-85
2021/12/21 11:37:20;;;;;;;9.83;4.17;;;4.10;84.00;3.20;97367.00;;;;5071362;28;20196;-88
2021/12/21 11:38:08;;;;;;;7.03;3.50;;;3.90;84.30;2.70;97364.00;;;;5064300;28;20212;-84
2021/12/21 11:40:57;;;;;;;6.80;4.53;;;3.70;84.50;2.70;97366.00;;;;5070146;28;20216;-87
2021/12/21 11:43:57;;;;;;;8.13;4.10;;;3.40;85.00;2.50;97357.00;;;;5070612;28;20208;-88
2021/12/21 11:46:55;;;;;;;5.77;3.97;;;3.20;85.90;2.00;97351.00;;;;5076269;28;20211;-88
2021/12/21 11:49:50;;;;;;;6.10;4.00;;;3.00;86.50;2.40;97350.00;;;;5077253;28;20433;-85
2021/12/21 11:52:49;;;;;;;6.50;4.97;;;2.90;87.20;2.40;97349.00;;;;5072889;28;20422;-86
2021/12/21 11:55:43;;;;;;;5.57;4.00;;;2.70;88.10;1.80;97354.00;;;;5077678;28;20473;-86
2021/12/21 11:58:38;;;;;;;6.80;3.53;;;2.70;88.40;1.90;97345.00;;;;5077228;28;21010;-87
2021/12/21 12:01:30;;;;;;;6.23;4.67;;;2.50;89.80;2.10;97353.00;;;;5073563;28;20450;-88
2021/12/21 12:04:20;;;;;;;13.03;4.60;;;2.40;90.30;2.40;97340.00;;;;5057205;28;20427;-84
2021/12/21 12:07:19;;;;;;;5.13;4.27;;;2.40;90.60;2.70;97336.00;;;;5065751;28;20854;-86
2021/12/21 12:10:12;;;;;;;30.03;16.73;;;2.60;91.10;2.80;97339.00;;;;5062770;28;20448;-85
2021/12/21 12:13:13;;;;;;;9.57;5.90;;;2.70;91.30;2.50;97332.00;;;;5077339;28;20915;-85
2021/12/21 12:16:07;;;;;;;8.80;4.20;;;2.80;90.50;2.30;97321.00;;;;5072178;28;20474;-87
2021/12/21 12:19:00;;;;;;;7.40;4.70;;;2.80;90.10;2.60;97313.00;;;;5068829;28;20440;-87
2021/12/21 12:21:59;;;;;;;7.23;4.53;;;2.80;90.30;2.70;97324.00;;;;5066193;28;20500;-87
2021/12/21 12:24:57;;;;;;;5.53;4.83;;;2.80;90.50;2.40;97332.00;;;;5069038;28;20445;-85
2021/12/21 12:27:48;;;;;;;7.77;4.77;;;2.80;90.20;2.10;97316.00;;;;5080594;28;20484;-86
2021/12/21 12:30:48;;;;;;;6.93;4.07;;;2.70;89.60;1.90;97317.00;;;;5071103;28;20442;-87
2021/12/21 12:33:39;;;;;;;5.63;4.27;;;2.70;89.60;1.60;97307.00;;;;5066989;28;20464;-86
2021/12/21 12:36:38;;;;;;;4.20;3.80;;;2.60;88.90;1.40;97299.00;;;;5068197;28;20463;-84
2021/12/21 12:39:33;;;;;;;4.90;3.57;;;2.40;89.20;1.50;97297.00;;;;5076390;28;20434;-83
2021/12/21 12:42:26;;;;;;;6.23;4.47;;;2.30;89.20;1.50;97294.00;;;;5058781;28;20423;-86
2021/12/21 12:45:21;;;;;;;10.00;4.10;;;2.20;89.60;1.60;97286.00;;;;5063439;28;20436;-86
2021/12/21 12:48:22;;;;;;;6.03;3.83;;;2.10;90.00;1.80;97270.00;;;;5075220;28;20427;-87
2021/12/21 12:51:25;;;;;;;6.00;3.80;;;2.20;90.20;2.00;97297.00;;;;5069895;28;20441;-86
2021/12/21 12:54:15;;;;;;;7.97;4.07;;;2.60;90.20;2.80;97270.00;;;;5073914;28;20430;-87
2021/12/21 12:57:06;;;;;;;8.57;5.07;;;2.60;90.60;3.90;97263.00;;;;5066877;28;20457;-86
2021/12/21 12:59:58;;;;;;;13.13;4.67;;;3.10;90.80;5.00;97253.00;;;;5066838;28;20433;-86
2021/12/21 13:03:00;;;;;;;4.47;4.00;;;4.00;90.20;6.10;97254.00;;;;5061202;28;20207;-86
2021/12/21 13:05:53;;;;;;;5.00;4.43;;;5.30;85.10;6.90;97266.00;;;;5062822;28;20611;-88
2021/12/21 13:08:51;;;;;;;6.13;3.67;;;6.30;82.70;6.30;97247.00;;;;5072388;28;20333;-87
2021/12/21 13:11:41;;;;;;;8.73;3.47;;;7.50;73.10;7.40;97265.00;;;;5068652;28;20219;-88
2021/12/21 13:14:32;;;;;;;5.40;3.67;;;8.00;71.10;7.90;97263.00;;;;5066008;28;20223;-88
2021/12/21 13:17:22;;;;;;;3.50;3.20;;;8.50;68.60;8.70;97265.00;;;;5051119;28;20228;-86
2021/12/21 13:20:15;;;;;;;3.77;3.40;;;8.90;67.60;8.80;97263.00;;;;5050360;28;20232;-87